sensor_id;sensor_type;location;lat;lon;timestamp;pressure;altitude;pressure_sealevel;temperature;humidity
79236;BME280;69062;47.460;18.812;2023-08-07T00:00:17;99362.19;;;24.42;53.77
79236;BME280;69062;47.460;18.812;2023-08-07T00:01:20;99369.44;;;24.41;53.92
79236;BME280;69062;47.460;18.812;2023-08-07T00:02:22;99373.00;;;24.42;54.13
79236;BME280;69062;47.460;18.812;2023-08-07T00:03:25;99371.31;;;24.41;53.46
79236;BME280;69062;47.460;18.812;2023-08-07T00:04:28;99367.75;;;24.40;53.54
79236;BME280;69062;47.460;18.812;2023-08-07T00:05:31;99368.63;;;24.41;53.84
79236;BME280;69062;47.460;18.812;2023-08-07T00:06:33;99375.00;;;24.40;53.80
79236;BME280;69062;47.460;18.812;2023-08-07T00:07:36;99366.91;;;24.40;53.86
79236;BME280;69062;47.460;18.812;2023-08-07T00:08:39;99376.88;;;24.39;53.80
79236;BME280;69062;47.460;18.812;2023-08-07T00:09:42;99368.78;;;24.39;53.87
79236;BME280;69062;47.460;18.812;2023-08-07T00:10:44;99380.59;;;24.38;54.18
79236;BME280;69062;47.460;18.812;2023-08-07T00:11:47;99382.28;;;24.39;53.81
79236;BME280;69062;47.460;18.812;2023-08-07T00:12:50;99377.91;;;24.38;54.35
79236;BME280;69062;47.460;18.812;2023-08-07T00:13:53;99378.72;;;24.39;53.87
79236;BME280;69062;47.460;18.812;2023-08-07T00:14:56;99376.03;;;24.39;54.14
79236;BME280;69062;47.460;18.812;2023-08-07T00:15:58;99383.31;;;24.38;54.19
79236;BME280;69062;47.460;18.812;2023-08-07T00:17:01;99378.09;;;24.37;53.63
79236;BME280;69062;47.460;18.812;2023-08-07T00:18:04;99370.81;;;24.37;53.93
79236;BME280;69062;47.460;18.812;2023-08-07T00:19:07;99373.53;;;24.37;54.00
79236;BME280;69062;47.460;18.812;2023-08-07T00:20:10;99372.69;;;24.37;54.16
79236;BME280;69062;47.460;18.812;2023-08-07T00:21:13;99379.75;;;24.38;54.28
79236;BME280;69062;47.460;18.812;2023-08-07T00:22:15;99372.69;;;24.37;53.63
79236;BME280;69062;47.460;18.812;2023-08-07T00:23:18;99368.31;;;24.36;54.31
79236;BME280;69062;47.460;18.812;2023-08-07T00:24:21;99373.72;;;24.36;54.31
79236;BME280;69062;47.460;18.812;2023-08-07T00:25:24;99367.47;;;24.35;54.29
79236;BME280;69062;47.460;18.812;2023-08-07T00:26:26;99373.72;;;24.36;53.65
79236;BME280;69062;47.460;18.812;2023-08-07T00:27:29;99368.31;;;24.36;53.92
79236;BME280;69062;47.460;18.812;2023-08-07T00:28:32;99363.94;;;24.35;54.37
79236;BME280;69062;47.460;18.812;2023-08-07T00:29:35;99364.78;;;24.35;53.98
79236;BME280;69062;47.460;18.812;2023-08-07T00:30:37;99370.19;;;24.35;53.95
79236;BME280;69062;47.460;18.812;2023-08-07T00:31:40;99372.88;;;24.35;54.10
79236;BME280;69062;47.460;18.812;2023-08-07T00:32:43;99367.66;;;24.34;53.72
79236;BME280;69062;47.460;18.812;2023-08-07T00:33:46;99364.97;;;24.34;53.67
79236;BME280;69062;47.460;18.812;2023-08-07T00:34:49;99370.38;;;24.34;53.65
79236;BME280;69062;47.460;18.812;2023-08-07T00:35:52;99371.38;;;24.33;53.62
79236;BME280;69062;47.460;18.812;2023-08-07T00:36:54;99370.38;;;24.34;53.88
79236;BME280;69062;47.460;18.812;2023-08-07T00:37:58;99371.38;;;24.33;54.10
79236;BME280;69062;47.460;18.812;2023-08-07T00:39:01;99364.97;;;24.34;54.45
79236;BME280;69062;47.460;18.812;2023-08-07T00:40:06;99378.47;;;24.34;53.71
79236;BME280;69062;47.460;18.812;2023-08-07T00:41:09;99372.19;;;24.33;53.73
79236;BME280;69062;47.460;18.812;2023-08-07T00:42:12;99363.28;;;24.33;53.61
79236;BME280;69062;47.460;18.812;2023-08-07T00:43:15;99365.97;;;24.33;54.30
79236;BME280;69062;47.460;18.812;2023-08-07T00:44:17;99360.72;;;24.31;53.90
79236;BME280;69062;47.460;18.812;2023-08-07T00:45:20;99370.50;;;24.32;53.70
79236;BME280;69062;47.460;18.812;2023-08-07T00:46:24;99370.50;;;24.32;54.19
79236;BME280;69062;47.460;18.812;2023-08-07T00:47:28;99372.38;;;24.32;53.62
79236;BME280;69062;47.460;18.812;2023-08-07T00:48:31;99375.06;;;24.32;53.75
79236;BME280;69062;47.460;18.812;2023-08-07T00:49:35;99371.38;;;24.33;54.25
79236;BME280;69062;47.460;18.812;2023-08-07T00:50:40;99369.66;;;24.32;53.94
79236;BME280;69062;47.460;18.812;2023-08-07T00:51:49;99362.59;;;24.31;54.23
79236;BME280;69062;47.460;18.812;2023-08-07T00:52:51;99366.13;;;24.31;53.56
79236;BME280;69062;47.460;18.812;2023-08-07T00:53:54;99364.47;;;24.30;53.39
79236;BME280;69062;47.460;18.812;2023-08-07T00:54:58;99369.84;;;24.30;54.11
79236;BME280;69062;47.460;18.812;2023-08-07T00:56:01;99363.63;;;24.30;54.14
79236;BME280;69062;47.460;18.812;2023-08-07T00:57:12;99365.47;;;24.29;53.36
79236;BME280;69062;47.460;18.812;2023-08-07T00:58:17;99367.16;;;24.30;54.15
79236;BME280;69062;47.460;18.812;2023-08-07T00:59:21;99361.75;;;24.30;53.44
79236;BME280;69062;47.460;18.812;2023-08-07T01:00:25;99366.31;;;24.30;53.94
79236;BME280;69062;47.460;18.812;2023-08-07T01:01:28;99354.69;;;24.29;53.92
79236;BME280;69062;47.460;18.812;2023-08-07T01:02:31;99357.38;;;24.29;54.09
79236;BME280;69062;47.460;18.812;2023-08-07T01:03:34;99353.00;;;24.28;53.33
79236;BME280;69062;47.460;18.812;2023-08-07T01:04:37;99350.31;;;24.28;53.36
79236;BME280;69062;47.460;18.812;2023-08-07T01:05:40;99353.00;;;24.28;53.44
79236;BME280;69062;47.460;18.812;2023-08-07T01:06:43;99359.25;;;24.29;53.62
79236;BME280;69062;47.460;18.812;2023-08-07T01:07:49;99355.72;;;24.28;53.68
79236;BME280;69062;47.460;18.812;2023-08-07T01:08:54;99358.41;;;24.28;54.08
79236;BME280;69062;47.460;18.812;2023-08-07T01:09:57;99357.56;;;24.28;54.19
79236;BME280;69062;47.460;18.812;2023-08-07T01:12:26;99357.56;;;24.28;53.33
79236;BME280;69062;47.460;18.812;2023-08-07T01:13:37;99355.91;;;24.27;54.04
79236;BME280;69062;47.460;18.812;2023-08-07T01:14:55;99366.69;;;24.27;54.09
79236;BME280;69062;47.460;18.812;2023-08-07T01:16:06;99365.84;;;24.26;53.97
79236;BME280;69062;47.460;18.812;2023-08-07T01:17:17;99371.22;;;24.26;53.59
79236;BME280;69062;47.460;18.812;2023-08-07T01:18:23;99370.38;;;24.26;54.29
79236;BME280;69062;47.460;18.812;2023-08-07T01:19:28;99365.84;;;24.26;53.75
79236;BME280;69062;47.460;18.812;2023-08-07T01:20:32;99370.38;;;24.26;53.49
79236;BME280;69062;47.460;18.812;2023-08-07T01:21:34;99368.72;;;24.25;53.82
79236;BME280;69062;47.460;18.812;2023-08-07T01:22:37;99371.22;;;24.26;54.02
79236;BME280;69062;47.460;18.812;2023-08-07T01:23:40;99381.19;;;24.26;53.48
79236;BME280;69062;47.460;18.812;2023-08-07T01:24:46;99380.34;;;24.25;53.27
79236;BME280;69062;47.460;18.812;2023-08-07T01:25:49;99381.19;;;24.26;54.03
79236;BME280;69062;47.460;18.812;2023-08-07T01:26:54;99386.59;;;24.26;53.33
79236;BME280;69062;47.460;18.812;2023-08-07T01:28:08;99387.63;;;24.25;54.13
79236;BME280;69062;47.460;18.812;2023-08-07T01:29:21;99398.41;;;24.25;53.61
79236;BME280;69062;47.460;18.812;2023-08-07T01:30:30;99391.16;;;24.25;54.00
79236;BME280;69062;47.460;18.812;2023-08-07T01:31:38;99384.06;;;24.24;53.50
79236;BME280;69062;47.460;18.812;2023-08-07T01:34:03;99401.28;;;24.23;53.89
79236;BME280;69062;47.460;18.812;2023-08-07T01:35:08;99401.09;;;24.25;53.22
79236;BME280;69062;47.460;18.812;2023-08-07T01:36:15;99400.28;;;24.24;54.16
79236;BME280;69062;47.460;18.812;2023-08-07T01:37:21;99398.59;;;24.23;53.36
79236;BME280;69062;47.460;18.812;2023-08-07T01:38:26;99402.13;;;24.24;53.67
79236;BME280;69062;47.460;18.812;2023-08-07T01:39:31;99400.47;;;24.23;53.70
79236;BME280;69062;47.460;18.812;2023-08-07T01:40:37;99403.16;;;24.23;53.62
79236;BME280;69062;47.460;18.812;2023-08-07T01:41:41;99398.78;;;24.21;53.54
79236;BME280;69062;47.460;18.812;2023-08-07T01:42:45;99412.28;;;24.21;53.97
79236;BME280;69062;47.460;18.812;2023-08-07T01:43:48;99403.34;;;24.21;53.38
79236;BME280;69062;47.460;18.812;2023-08-07T01:44:51;99402.31;;;24.22;53.38
79236;BME280;69062;47.460;18.812;2023-08-07T01:45:54;99409.59;;;24.21;53.50
79236;BME280;69062;47.460;18.812;2023-08-07T01:46:56;99404.19;;;24.21;53.25
79236;BME280;69062;47.460;18.812;2023-08-07T01:48:00;99410.59;;;24.20;54.04
79236;BME280;69062;47.460;18.812;2023-08-07T01:49:03;99398.97;;;24.20;53.81
79236;BME280;69062;47.460;18.812;2023-08-07T01:50:06;99415.16;;;24.20;53.57
79236;BME280;69062;47.460;18.812;2023-08-07T01:51:09;99398.13;;;24.19;53.96
79236;BME280;69062;47.460;18.812;2023-08-07T01:52:11;99406.22;;;24.19;53.59
79236;BME280;69062;47.460;18.812;2023-08-07T01:53:15;99412.47;;;24.20;53.46
79236;BME280;69062;47.460;18.812;2023-08-07T01:54:17;99408.94;;;24.19;53.16
79236;BME280;69062;47.460;18.812;2023-08-07T01:55:22;99408.94;;;24.19;53.92
79236;BME280;69062;47.460;18.812;2023-08-07T01:56:26;99398.13;;;24.19;53.64
79236;BME280;69062;47.460;18.812;2023-08-07T01:57:28;99403.53;;;24.19;53.84
79236;BME280;69062;47.460;18.812;2023-08-07T01:58:31;99410.75;;;24.19;53.94
79236;BME280;69062;47.460;18.812;2023-08-07T01:59:34;99408.06;;;24.19;53.17
79236;BME280;69062;47.460;18.812;2023-08-07T02:00:37;99406.22;;;24.19;53.58
79236;BME280;69062;47.460;18.812;2023-08-07T02:01:39;99409.09;;;24.18;53.32
79236;BME280;69062;47.460;18.812;2023-08-07T02:02:42;99412.63;;;24.18;53.36
79236;BME280;69062;47.460;18.812;2023-08-07T02:03:48;99404.53;;;24.18;54.15
79236;BME280;69062;47.460;18.812;2023-08-07T02:04:51;99407.22;;;24.18;53.42
79236;BME280;69062;47.460;18.812;2023-08-07T02:05:55;99404.72;;;24.17;53.61
79236;BME280;69062;47.460;18.812;2023-08-07T02:07:00;99399.31;;;24.17;53.75
79236;BME280;69062;47.460;18.812;2023-08-07T02:08:02;99405.56;;;24.17;53.58
79236;BME280;69062;47.460;18.812;2023-08-07T02:09:06;99395.59;;;24.18;53.65
79236;BME280;69062;47.460;18.812;2023-08-07T02:10:10;99399.31;;;24.17;53.74
79236;BME280;69062;47.460;18.812;2023-08-07T02:11:13;99398.47;;;24.16;53.56
79236;BME280;69062;47.460;18.812;2023-08-07T02:12:15;99399.50;;;24.15;53.75
79236;BME280;69062;47.460;18.812;2023-08-07T02:13:18;99394.13;;;24.15;53.21
79236;BME280;69062;47.460;18.812;2023-08-07T02:14:21;99398.47;;;24.16;53.37
79236;BME280;69062;47.460;18.812;2023-08-07T02:15:24;99401.19;;;24.16;53.93
79236;BME280;69062;47.460;18.812;2023-08-07T02:16:27;99400.34;;;24.16;53.85
79236;BME280;69062;47.460;18.812;2023-08-07T02:17:30;99402.22;;;24.15;53.88
79236;BME280;69062;47.460;18.812;2023-08-07T02:18:33;99399.50;;;24.15;53.01
79236;BME280;69062;47.460;18.812;2023-08-07T02:19:36;99400.53;;;24.14;53.87
79236;BME280;69062;47.460;18.812;2023-08-07T02:20:38;99401.19;;;24.16;53.28
79236;BME280;69062;47.460;18.812;2023-08-07T02:21:42;99402.22;;;24.15;53.82
79236;BME280;69062;47.460;18.812;2023-08-07T02:22:45;99404.06;;;24.15;53.97
79236;BME280;69062;47.460;18.812;2023-08-07T02:23:48;99399.69;;;24.14;53.74
79236;BME280;69062;47.460;18.812;2023-08-07T02:24:51;99402.22;;;24.15;53.12
79236;BME280;69062;47.460;18.812;2023-08-07T02:25:54;99410.50;;;24.14;53.34
79236;BME280;69062;47.460;18.812;2023-08-07T02:26:57;99406.13;;;24.13;53.31
79236;BME280;69062;47.460;18.812;2023-08-07T02:28:00;99404.25;;;24.13;53.63
79236;BME280;69062;47.460;18.812;2023-08-07T02:29:03;99417.75;;;24.13;53.39
79236;BME280;69062;47.460;18.812;2023-08-07T02:30:07;99414.03;;;24.14;53.31
79236;BME280;69062;47.460;18.812;2023-08-07T02:31:10;99415.06;;;24.13;53.05
79236;BME280;69062;47.460;18.812;2023-08-07T02:32:13;99411.31;;;24.14;53.14
79236;BME280;69062;47.460;18.812;2023-08-07T02:33:15;99412.34;;;24.13;53.03
79236;BME280;69062;47.460;18.812;2023-08-07T02:34:19;99413.38;;;24.12;52.97
79236;BME280;69062;47.460;18.812;2023-08-07T02:35:22;99410.69;;;24.12;53.36
79236;BME280;69062;47.460;18.812;2023-08-07T02:36:26;99415.06;;;24.13;53.07
79236;BME280;69062;47.460;18.812;2023-08-07T02:37:29;99413.38;;;24.12;52.96
79236;BME280;69062;47.460;18.812;2023-08-07T02:38:33;99408.81;;;24.13;53.13
79236;BME280;69062;47.460;18.812;2023-08-07T02:39:37;99411.66;;;24.11;53.58
79236;BME280;69062;47.460;18.812;2023-08-07T02:40:39;99406.28;;;24.11;53.53
79236;BME280;69062;47.460;18.812;2023-08-07T02:41:42;99408.13;;;24.11;52.96
79236;BME280;69062;47.460;18.812;2023-08-07T02:42:45;99406.28;;;24.11;53.42
79236;BME280;69062;47.460;18.812;2023-08-07T02:43:48;99407.16;;;24.12;53.76
79236;BME280;69062;47.460;18.812;2023-08-07T02:44:51;99405.44;;;24.11;53.46
79236;BME280;69062;47.460;18.812;2023-08-07T02:45:54;99404.59;;;24.10;53.28
79236;BME280;69062;47.460;18.812;2023-08-07T02:46:57;99403.56;;;24.11;53.61
79236;BME280;69062;47.460;18.812;2023-08-07T02:48:00;99408.31;;;24.09;53.40
79236;BME280;69062;47.460;18.812;2023-08-07T02:49:03;99405.44;;;24.11;53.30
79236;BME280;69062;47.460;18.812;2023-08-07T02:50:07;99410.00;;;24.10;53.06
79236;BME280;69062;47.460;18.812;2023-08-07T02:51:10;99409.16;;;24.10;53.61
79236;BME280;69062;47.460;18.812;2023-08-07T02:52:13;99413.72;;;24.09;53.11
79236;BME280;69062;47.460;18.812;2023-08-07T02:53:15;99408.31;;;24.09;53.49
79236;BME280;69062;47.460;18.812;2023-08-07T02:54:18;99411.03;;;24.09;52.87
79236;BME280;69062;47.460;18.812;2023-08-07T02:55:21;99404.78;;;24.09;53.30
79236;BME280;69062;47.460;18.812;2023-08-07T02:56:24;99408.31;;;24.09;52.66
79236;BME280;69062;47.460;18.812;2023-08-07T02:57:27;99402.94;;;24.09;53.10
79236;BME280;69062;47.460;18.812;2023-08-07T02:58:30;99402.94;;;24.09;52.98
79236;BME280;69062;47.460;18.812;2023-08-07T02:59:33;99405.81;;;24.08;52.75
79236;BME280;69062;47.460;18.812;2023-08-07T03:00:36;99404.78;;;24.09;52.95
79236;BME280;69062;47.460;18.812;2023-08-07T03:01:39;99409.34;;;24.08;52.83
79236;BME280;69062;47.460;18.812;2023-08-07T03:02:42;99406.66;;;24.08;52.77
79236;BME280;69062;47.460;18.812;2023-08-07T03:03:44;99411.22;;;24.08;52.80
79236;BME280;69062;47.460;18.812;2023-08-07T03:04:47;99403.13;;;24.08;52.75
79236;BME280;69062;47.460;18.812;2023-08-07T03:05:52;99420.16;;;24.08;52.78
79236;BME280;69062;47.460;18.812;2023-08-07T03:06:55;99412.25;;;24.07;53.44
79236;BME280;69062;47.460;18.812;2023-08-07T03:07:58;99410.38;;;24.07;52.89
79236;BME280;69062;47.460;18.812;2023-08-07T03:09:01;99412.41;;;24.05;53.10
79236;BME280;69062;47.460;18.812;2023-08-07T03:10:04;99412.25;;;24.07;52.96
79236;BME280;69062;47.460;18.812;2023-08-07T03:11:07;99406.00;;;24.06;53.30
79236;BME280;69062;47.460;18.812;2023-08-07T03:12:10;99411.41;;;24.06;52.76
79236;BME280;69062;47.460;18.812;2023-08-07T03:13:12;99406.84;;;24.07;52.95
79236;BME280;69062;47.460;18.812;2023-08-07T03:14:15;99414.09;;;24.06;52.83
79236;BME280;69062;47.460;18.812;2023-08-07T03:15:18;99414.09;;;24.06;52.80
79236;BME280;69062;47.460;18.812;2023-08-07T03:16:21;99409.72;;;24.05;53.45
79236;BME280;69062;47.460;18.812;2023-08-07T03:17:24;99407.03;;;24.05;52.75
79236;BME280;69062;47.460;18.812;2023-08-07T03:18:28;99408.03;;;24.04;53.46
79236;BME280;69062;47.460;18.812;2023-08-07T03:19:31;99420.53;;;24.05;53.46
79236;BME280;69062;47.460;18.812;2023-08-07T03:20:36;99415.13;;;24.05;52.99
79236;BME280;69062;47.460;18.812;2023-08-07T03:21:39;99412.41;;;24.05;52.87
79236;BME280;69062;47.460;18.812;2023-08-07T03:22:42;99408.88;;;24.05;53.00
79236;BME280;69062;47.460;18.812;2023-08-07T03:23:45;99411.59;;;24.05;52.83
79236;BME280;69062;47.460;18.812;2023-08-07T03:24:48;99416.97;;;24.05;53.13
79236;BME280;69062;47.460;18.812;2023-08-07T03:26:00;99414.28;;;24.05;53.49
79236;BME280;69062;47.460;18.812;2023-08-07T03:27:20;99417.13;;;24.03;53.26
79236;BME280;69062;47.460;18.812;2023-08-07T03:28:23;99420.69;;;24.04;52.77
79236;BME280;69062;47.460;18.812;2023-08-07T03:29:26;99413.59;;;24.03;53.42
79236;BME280;69062;47.460;18.812;2023-08-07T03:30:29;99409.03;;;24.03;53.37
79236;BME280;69062;47.460;18.812;2023-08-07T03:31:32;99414.44;;;24.03;52.95
79236;BME280;69062;47.460;18.812;2023-08-07T03:32:35;99409.03;;;24.03;53.53
79236;BME280;69062;47.460;18.812;2023-08-07T03:33:38;99408.22;;;24.03;52.76
79236;BME280;69062;47.460;18.812;2023-08-07T03:34:41;99411.94;;;24.02;53.47
79236;BME280;69062;47.460;18.812;2023-08-07T03:35:44;99410.06;;;24.02;52.78
79236;BME280;69062;47.460;18.812;2023-08-07T03:36:48;99413.59;;;24.03;52.87
79236;BME280;69062;47.460;18.812;2023-08-07T03:37:51;99417.31;;;24.02;53.42
79236;BME280;69062;47.460;18.812;2023-08-07T03:38:54;99419.19;;;24.01;53.08
79236;BME280;69062;47.460;18.812;2023-08-07T03:39:57;99423.56;;;24.02;52.68
79236;BME280;69062;47.460;18.812;2023-08-07T03:41:01;99428.13;;;24.02;53.36
79236;BME280;69062;47.460;18.812;2023-08-07T03:42:05;99426.44;;;24.01;53.35
79236;BME280;69062;47.460;18.812;2023-08-07T03:43:08;99425.59;;;24.00;53.13
79236;BME280;69062;47.460;18.812;2023-08-07T03:44:11;99429.97;;;24.01;53.06
79236;BME280;69062;47.460;18.812;2023-08-07T03:45:14;99429.31;;;23.99;52.80
79236;BME280;69062;47.460;18.812;2023-08-07T03:46:17;99436.41;;;24.00;53.43
79236;BME280;69062;47.460;18.812;2023-08-07T03:47:20;99429.13;;;24.01;52.92
79236;BME280;69062;47.460;18.812;2023-08-07T03:48:23;99429.97;;;24.01;53.06
79236;BME280;69062;47.460;18.812;2023-08-07T03:49:26;99435.56;;;24.00;53.32
79236;BME280;69062;47.460;18.812;2023-08-07T03:50:29;99435.56;;;24.00;52.81
79236;BME280;69062;47.460;18.812;2023-08-07T03:51:33;99430.16;;;24.00;53.29
79236;BME280;69062;47.460;18.812;2023-08-07T03:52:36;99433.88;;;23.99;52.65
79236;BME280;69062;47.460;18.812;2023-08-07T03:53:39;99433.06;;;23.98;52.75
79236;BME280;69062;47.460;18.812;2023-08-07T03:54:42;99439.28;;;23.99;52.70
79236;BME280;69062;47.460;18.812;2023-08-07T03:55:49;99432.22;;;23.98;52.86
79236;BME280;69062;47.460;18.812;2023-08-07T03:56:55;99428.50;;;23.99;53.21
79236;BME280;69062;47.460;18.812;2023-08-07T03:57:58;99431.19;;;23.99;52.86
79236;BME280;69062;47.460;18.812;2023-08-07T03:59:04;99436.75;;;23.97;53.54
79236;BME280;69062;47.460;18.812;2023-08-07T04:00:07;99441.16;;;23.98;52.77
79236;BME280;69062;47.460;18.812;2023-08-07T04:01:16;99443.00;;;23.98;52.84
79236;BME280;69062;47.460;18.812;2023-08-07T04:02:20;99433.06;;;23.98;52.77
79236;BME280;69062;47.460;18.812;2023-08-07T04:03:22;99443.00;;;23.98;53.00
79236;BME280;69062;47.460;18.812;2023-08-07T04:04:25;99446.69;;;23.97;53.01
79236;BME280;69062;47.460;18.812;2023-08-07T04:05:28;99445.69;;;23.98;52.77
79236;BME280;69062;47.460;18.812;2023-08-07T04:06:31;99451.09;;;23.98;53.45
79236;BME280;69062;47.460;18.812;2023-08-07T04:07:34;99446.53;;;23.98;52.65
79236;BME280;69062;47.460;18.812;2023-08-07T04:08:37;99453.94;;;23.96;52.69
79236;BME280;69062;47.460;18.812;2023-08-07T04:09:40;99445.03;;;23.96;52.72
79236;BME280;69062;47.460;18.812;2023-08-07T04:10:42;99445.84;;;23.96;52.76
79236;BME280;69062;47.460;18.812;2023-08-07T04:11:45;99452.28;;;23.95;53.30
79236;BME280;69062;47.460;18.812;2023-08-07T04:12:48;99454.97;;;23.95;52.68
79236;BME280;69062;47.460;18.812;2023-08-07T04:13:52;99444.19;;;23.95;53.25
79236;BME280;69062;47.460;18.812;2023-08-07T04:14:55;99461.22;;;23.96;52.77
79236;BME280;69062;47.460;18.812;2023-08-07T04:15:58;99452.28;;;23.95;53.39
79236;BME280;69062;47.460;18.812;2023-08-07T04:17:01;99443.34;;;23.94;53.50
79236;BME280;69062;47.460;18.812;2023-08-07T04:18:04;99458.69;;;23.94;53.46
79236;BME280;69062;47.460;18.812;2023-08-07T04:19:07;99459.53;;;23.94;53.28
79236;BME280;69062;47.460;18.812;2023-08-07T04:20:10;99453.31;;;23.94;53.37
79236;BME280;69062;47.460;18.812;2023-08-07T04:21:13;99456.00;;;23.94;52.82
79236;BME280;69062;47.460;18.812;2023-08-07T04:22:16;99457.03;;;23.93;52.88
79236;BME280;69062;47.460;18.812;2023-08-07T04:23:19;99466.78;;;23.94;52.81
79236;BME280;69062;47.460;18.812;2023-08-07T04:24:22;99457.03;;;23.93;52.59
79236;BME280;69062;47.460;18.812;2023-08-07T04:25:25;99459.72;;;23.93;53.22
79236;BME280;69062;47.460;18.812;2023-08-07T04:26:28;99465.13;;;23.93;53.11
79236;BME280;69062;47.460;18.812;2023-08-07T04:27:31;99462.41;;;23.93;52.78
79236;BME280;69062;47.460;18.812;2023-08-07T04:28:34;99449.75;;;23.93;52.68
79236;BME280;69062;47.460;18.812;2023-08-07T04:29:37;99449.94;;;23.92;52.72
79236;BME280;69062;47.460;18.812;2023-08-07T04:30:40;99450.78;;;23.92;53.38
79236;BME280;69062;47.460;18.812;2023-08-07T04:31:43;99449.13;;;23.91;53.23
79236;BME280;69062;47.460;18.812;2023-08-07T04:32:46;99460.75;;;23.92;52.70
79236;BME280;69062;47.460;18.812;2023-08-07T04:33:49;99460.75;;;23.92;52.95
79236;BME280;69062;47.460;18.812;2023-08-07T04:34:52;99455.34;;;23.92;52.51
79236;BME280;69062;47.460;18.812;2023-08-07T04:35:55;99458.03;;;23.92;53.00
79236;BME280;69062;47.460;18.812;2023-08-07T04:36:58;99459.22;;;23.89;52.92
79236;BME280;69062;47.460;18.812;2023-08-07T04:38:01;99462.75;;;23.90;52.12
79236;BME280;69062;47.460;18.812;2023-08-07T04:39:04;99458.38;;;23.89;52.26
79236;BME280;69062;47.460;18.812;2023-08-07T04:40:08;99461.91;;;23.89;52.36
79236;BME280;69062;47.460;18.812;2023-08-07T04:41:11;99460.25;;;23.88;52.93
79236;BME280;69062;47.460;18.812;2023-08-07T04:42:14;99461.09;;;23.89;52.95
79236;BME280;69062;47.460;18.812;2023-08-07T04:43:18;99466.47;;;23.89;52.95
79236;BME280;69062;47.460;18.812;2023-08-07T04:44:24;99463.78;;;23.89;52.90
79236;BME280;69062;47.460;18.812;2023-08-07T04:45:26;99467.50;;;23.88;52.16
79236;BME280;69062;47.460;18.812;2023-08-07T04:46:30;99465.63;;;23.88;52.67
79236;BME280;69062;47.460;18.812;2023-08-07T04:47:32;99463.97;;;23.87;52.81
79236;BME280;69062;47.460;18.812;2023-08-07T04:48:36;99462.94;;;23.88;52.26
79236;BME280;69062;47.460;18.812;2023-08-07T04:49:39;99459.41;;;23.88;52.64
79236;BME280;69062;47.460;18.812;2023-08-07T04:50:42;99464.81;;;23.88;52.18
79236;BME280;69062;47.460;18.812;2023-08-07T04:51:45;99463.97;;;23.87;52.09
79236;BME280;69062;47.460;18.812;2023-08-07T04:52:47;99460.25;;;23.88;52.19
79236;BME280;69062;47.460;18.812;2023-08-07T04:53:50;99461.25;;;23.87;52.26
79236;BME280;69062;47.460;18.812;2023-08-07T04:54:53;99463.97;;;23.87;52.61
79236;BME280;69062;47.460;18.812;2023-08-07T04:55:59;99460.44;;;23.87;52.09
79236;BME280;69062;47.460;18.812;2023-08-07T04:57:03;99466.66;;;23.87;52.30
79236;BME280;69062;47.460;18.812;2023-08-07T04:58:06;99456.72;;;23.88;52.20
79236;BME280;69062;47.460;18.812;2023-08-07T04:59:08;99455.03;;;23.87;52.51
79236;BME280;69062;47.460;18.812;2023-08-07T05:00:11;99450.66;;;23.86;52.88
79236;BME280;69062;47.460;18.812;2023-08-07T05:01:14;99451.50;;;23.86;52.63
79236;BME280;69062;47.460;18.812;2023-08-07T05:02:18;99452.34;;;23.87;52.45
79236;BME280;69062;47.460;18.812;2023-08-07T05:03:21;99450.66;;;23.86;52.26
79236;BME280;69062;47.460;18.812;2023-08-07T05:04:24;99453.34;;;23.86;52.45
79236;BME280;69062;47.460;18.812;2023-08-07T05:05:27;99453.19;;;23.87;52.90
79236;BME280;69062;47.460;18.812;2023-08-07T05:06:30;99451.31;;;23.88;52.86
79236;BME280;69062;47.460;18.812;2023-08-07T05:07:33;99451.50;;;23.86;52.95
79236;BME280;69062;47.460;18.812;2023-08-07T05:08:37;99452.34;;;23.87;52.44
79236;BME280;69062;47.460;18.812;2023-08-07T05:09:40;99455.88;;;23.87;52.14
79236;BME280;69062;47.460;18.812;2023-08-07T05:10:42;99443.41;;;23.86;52.47
79236;BME280;69062;47.460;18.812;2023-08-07T05:11:45;99449.63;;;23.87;52.77
79236;BME280;69062;47.460;18.812;2023-08-07T05:12:48;99456.72;;;23.88;52.44
79236;BME280;69062;47.460;18.812;2023-08-07T05:13:51;99457.72;;;23.87;52.27
79236;BME280;69062;47.460;18.812;2023-08-07T05:14:54;99452.34;;;23.87;52.78
79236;BME280;69062;47.460;18.812;2023-08-07T05:15:56;99453.19;;;23.87;52.68
79236;BME280;69062;47.460;18.812;2023-08-07T05:16:59;99455.88;;;23.87;52.73
79236;BME280;69062;47.460;18.812;2023-08-07T05:18:02;99455.88;;;23.87;52.83
79236;BME280;69062;47.460;18.812;2023-08-07T05:19:05;99458.56;;;23.87;52.78
79236;BME280;69062;47.460;18.812;2023-08-07T05:20:08;99455.88;;;23.87;52.85
79236;BME280;69062;47.460;18.812;2023-08-07T05:21:11;99459.41;;;23.88;52.10
79236;BME280;69062;47.460;18.812;2023-08-07T05:22:15;99463.97;;;23.87;52.57
79236;BME280;69062;47.460;18.812;2023-08-07T05:23:18;99463.13;;;23.87;52.09
79236;BME280;69062;47.460;18.812;2023-08-07T05:24:21;99473.91;;;23.87;52.45
79236;BME280;69062;47.460;18.812;2023-08-07T05:25:24;99473.91;;;23.87;52.23
79236;BME280;69062;47.460;18.812;2023-08-07T05:26:27;99465.00;;;23.86;52.45
79236;BME280;69062;47.460;18.812;2023-08-07T05:27:32;99464.16;;;23.86;52.35
79236;BME280;69062;47.460;18.812;2023-08-07T05:28:35;99468.53;;;23.87;52.73
79236;BME280;69062;47.460;18.812;2023-08-07T05:29:38;99468.53;;;23.87;52.42
79236;BME280;69062;47.460;18.812;2023-08-07T05:30:46;99471.22;;;23.87;52.64
79236;BME280;69062;47.460;18.812;2023-08-07T05:31:49;99469.34;;;23.87;52.67
79236;BME280;69062;47.460;18.812;2023-08-07T05:32:52;99469.53;;;23.86;52.73
79236;BME280;69062;47.460;18.812;2023-08-07T05:33:55;99473.91;;;23.87;52.75
79236;BME280;69062;47.460;18.812;2023-08-07T05:34:58;99481.16;;;23.86;52.88